sensor_id;sensor_type;location;lat;lon;timestamp;P1;durP1;ratioP1;P2;durP2;ratioP2
40591;SDS011;26301;42.832;23.918;2023-07-16T00:00:10;14.07;;;10.43;;
40591;SDS011;26301;42.832;23.918;2023-07-16T00:02:37;14.43;;;10.10;;
40591;SDS011;26301;42.832;23.918;2023-07-16T00:05:04;12.63;;;9.50;;
40591;SDS011;26301;42.832;23.918;2023-07-16T00:07:31;14.88;;;10.40;;
40591;SDS011;26301;42.832;23.918;2023-07-16T00:09:57;13.23;;;10.63;;
40591;SDS011;26301;42.832;23.918;2023-07-16T00:12:23;13.07;;;10.50;;
40591;SDS011;26301;42.832;23.918;2023-07-16T00:14:50;14.57;;;10.38;;
40591;SDS011;26301;42.832;23.918;2023-07-16T00:17:16;10.93;;;9.75;;
40591;SDS011;26301;42.832;23.918;2023-07-16T00:19:42;12.07;;;9.73;;
40591;SDS011;26301;42.832;23.918;2023-07-16T00:22:09;13.32;;;9.55;;
40591;SDS011;26301;42.832;23.918;2023-07-16T00:24:34;14.88;;;10.65;;
40591;SDS011;26301;42.832;23.918;2023-07-16T00:27:00;14.13;;;11.00;;
40591;SDS011;26301;42.832;23.918;2023-07-16T00:29:27;16.30;;;10.10;;
40591;SDS011;26301;42.832;23.918;2023-07-16T00:31:53;15.18;;;11.18;;
40591;SDS011;26301;42.832;23.918;2023-07-16T00:34:19;15.20;;;9.88;;
40591;SDS011;26301;42.832;23.918;2023-07-16T00:36:45;14.70;;;9.57;;
40591;SDS011;26301;42.832;23.918;2023-07-16T00:39:11;16.65;;;10.93;;
40591;SDS011;26301;42.832;23.918;2023-07-16T00:41:38;13.38;;;10.55;;
40591;SDS011;26301;42.832;23.918;2023-07-16T00:44:05;15.07;;;10.60;;
40591;SDS011;26301;42.832;23.918;2023-07-16T00:46:31;14.23;;;10.75;;
40591;SDS011;26301;42.832;23.918;2023-07-16T00:48:57;14.15;;;10.63;;
40591;SDS011;26301;42.832;23.918;2023-07-16T00:51:24;14.65;;;10.90;;
40591;SDS011;26301;42.832;23.918;2023-07-16T00:53:51;15.30;;;10.98;;
40591;SDS011;26301;42.832;23.918;2023-07-16T00:56:17;16.05;;;11.00;;
40591;SDS011;26301;42.832;23.918;2023-07-16T00:58:44;14.18;;;10.93;;
40591;SDS011;26301;42.832;23.918;2023-07-16T01:01:10;14.30;;;10.50;;
40591;SDS011;26301;42.832;23.918;2023-07-16T01:03:37;14.05;;;10.88;;
40591;SDS011;26301;42.832;23.918;2023-07-16T01:08:51;12.35;;;11.00;;
40591;SDS011;26301;42.832;23.918;2023-07-16T01:11:25;16.48;;;10.85;;
40591;SDS011;26301;42.832;23.918;2023-07-16T01:13:52;14.23;;;11.02;;
40591;SDS011;26301;42.832;23.918;2023-07-16T01:16:23;15.27;;;11.20;;
40591;SDS011;26301;42.832;23.918;2023-07-16T01:18:50;13.27;;;11.65;;
40591;SDS011;26301;42.832;23.918;2023-07-16T01:21:18;16.17;;;11.18;;
40591;SDS011;26301;42.832;23.918;2023-07-16T01:23:59;12.15;;;10.90;;
40591;SDS011;26301;42.832;23.918;2023-07-16T01:32:03;16.10;;;10.90;;
40591;SDS011;26301;42.832;23.918;2023-07-16T01:34:32;13.57;;;11.43;;
40591;SDS011;26301;42.832;23.918;2023-07-16T01:37:03;17.92;;;10.75;;
40591;SDS011;26301;42.832;23.918;2023-07-16T01:39:30;13.98;;;10.73;;
40591;SDS011;26301;42.832;23.918;2023-07-16T01:41:59;12.52;;;10.73;;
40591;SDS011;26301;42.832;23.918;2023-07-16T01:44:26;13.80;;;10.30;;
40591;SDS011;26301;42.832;23.918;2023-07-16T01:47:11;13.10;;;11.18;;
40591;SDS011;26301;42.832;23.918;2023-07-16T01:49:44;15.55;;;11.05;;
40591;SDS011;26301;42.832;23.918;2023-07-16T01:52:12;14.52;;;12.40;;
40591;SDS011;26301;42.832;23.918;2023-07-16T01:54:38;14.23;;;11.75;;
40591;SDS011;26301;42.832;23.918;2023-07-16T01:57:05;13.45;;;11.02;;
40591;SDS011;26301;42.832;23.918;2023-07-16T01:59:31;12.73;;;10.93;;
40591;SDS011;26301;42.832;23.918;2023-07-16T02:01:57;17.13;;;11.80;;
40591;SDS011;26301;42.832;23.918;2023-07-16T02:04:23;16.33;;;11.32;;
40591;SDS011;26301;42.832;23.918;2023-07-16T02:06:51;13.27;;;11.18;;
40591;SDS011;26301;42.832;23.918;2023-07-16T02:09:17;16.90;;;11.75;;
40591;SDS011;26301;42.832;23.918;2023-07-16T02:11:43;14.07;;;12.27;;
40591;SDS011;26301;42.832;23.918;2023-07-16T02:14:10;12.63;;;11.32;;
40591;SDS011;26301;42.832;23.918;2023-07-16T02:16:36;15.57;;;11.80;;
40591;SDS011;26301;42.832;23.918;2023-07-16T02:19:02;14.15;;;10.77;;
40591;SDS011;26301;42.832;23.918;2023-07-16T02:21:28;15.18;;;11.68;;
40591;SDS011;26301;42.832;23.918;2023-07-16T02:23:55;13.45;;;12.05;;
40591;SDS011;26301;42.832;23.918;2023-07-16T02:26:21;15.07;;;11.13;;
40591;SDS011;26301;42.832;23.918;2023-07-16T02:28:47;11.82;;;10.60;;
40591;SDS011;26301;42.832;23.918;2023-07-16T02:31:13;14.32;;;11.52;;
40591;SDS011;26301;42.832;23.918;2023-07-16T02:33:39;16.63;;;11.80;;
40591;SDS011;26301;42.832;23.918;2023-07-16T02:36:05;15.13;;;11.50;;
40591;SDS011;26301;42.832;23.918;2023-07-16T02:38:32;14.32;;;11.25;;
40591;SDS011;26301;42.832;23.918;2023-07-16T02:40:58;14.77;;;11.43;;
40591;SDS011;26301;42.832;23.918;2023-07-16T02:43:24;12.73;;;11.25;;
40591;SDS011;26301;42.832;23.918;2023-07-16T02:45:50;14.75;;;11.68;;
40591;SDS011;26301;42.832;23.918;2023-07-16T02:48:17;17.75;;;11.23;;
40591;SDS011;26301;42.832;23.918;2023-07-16T02:50:43;15.68;;;11.90;;
40591;SDS011;26301;42.832;23.918;2023-07-16T02:53:09;15.27;;;12.68;;
40591;SDS011;26301;42.832;23.918;2023-07-16T02:55:35;17.45;;;11.40;;
40591;SDS011;26301;42.832;23.918;2023-07-16T02:58:02;12.63;;;11.32;;
40591;SDS011;26301;42.832;23.918;2023-07-16T03:00:30;16.88;;;12.25;;
40591;SDS011;26301;42.832;23.918;2023-07-16T03:02:56;14.40;;;11.90;;
40591;SDS011;26301;42.832;23.918;2023-07-16T03:05:27;15.68;;;12.80;;
40591;SDS011;26301;42.832;23.918;2023-07-16T03:07:54;14.30;;;11.43;;
40591;SDS011;26301;42.832;23.918;2023-07-16T03:10:21;13.23;;;11.95;;
40591;SDS011;26301;42.832;23.918;2023-07-16T03:12:48;15.77;;;11.70;;
40591;SDS011;26301;42.832;23.918;2023-07-16T03:15:14;14.68;;;11.73;;
40591;SDS011;26301;42.832;23.918;2023-07-16T03:17:40;15.95;;;11.57;;
40591;SDS011;26301;42.832;23.918;2023-07-16T03:20:06;13.30;;;11.82;;
40591;SDS011;26301;42.832;23.918;2023-07-16T03:22:32;15.70;;;12.32;;
40591;SDS011;26301;42.832;23.918;2023-07-16T03:24:59;18.35;;;13.00;;
40591;SDS011;26301;42.832;23.918;2023-07-16T03:27:25;15.02;;;12.38;;
40591;SDS011;26301;42.832;23.918;2023-07-16T03:29:51;14.02;;;12.52;;
40591;SDS011;26301;42.832;23.918;2023-07-16T03:32:17;15.45;;;13.35;;
40591;SDS011;26301;42.832;23.918;2023-07-16T03:34:43;15.85;;;12.90;;
40591;SDS011;26301;42.832;23.918;2023-07-16T03:37:09;14.50;;;12.68;;
40591;SDS011;26301;42.832;23.918;2023-07-16T03:39:35;15.07;;;12.98;;
40591;SDS011;26301;42.832;23.918;2023-07-16T03:42:02;20.75;;;12.98;;
40591;SDS011;26301;42.832;23.918;2023-07-16T03:44:29;14.27;;;12.50;;
40591;SDS011;26301;42.832;23.918;2023-07-16T03:46:55;15.18;;;12.38;;
40591;SDS011;26301;42.832;23.918;2023-07-16T03:49:20;21.13;;;12.98;;
40591;SDS011;26301;42.832;23.918;2023-07-16T03:51:47;16.67;;;12.27;;
40591;SDS011;26301;42.832;23.918;2023-07-16T03:54:13;16.63;;;13.60;;
40591;SDS011;26301;42.832;23.918;2023-07-16T03:56:40;15.13;;;12.55;;
40591;SDS011;26301;42.832;23.918;2023-07-16T03:59:06;13.50;;;12.20;;
40591;SDS011;26301;42.832;23.918;2023-07-16T04:01:32;13.48;;;12.13;;
40591;SDS011;26301;42.832;23.918;2023-07-16T04:03:59;19.38;;;12.05;;
40591;SDS011;26301;42.832;23.918;2023-07-16T04:06:25;15.50;;;12.40;;
40591;SDS011;26301;42.832;23.918;2023-07-16T04:08:51;17.90;;;12.40;;
40591;SDS011;26301;42.832;23.918;2023-07-16T04:11:17;13.98;;;12.27;;
40591;SDS011;26301;42.832;23.918;2023-07-16T04:13:43;14.13;;;11.70;;
40591;SDS011;26301;42.832;23.918;2023-07-16T04:16:10;12.15;;;10.70;;
40591;SDS011;26301;42.832;23.918;2023-07-16T04:18:36;15.80;;;11.32;;
40591;SDS011;26301;42.832;23.918;2023-07-16T04:21:03;18.30;;;12.15;;
40591;SDS011;26301;42.832;23.918;2023-07-16T04:23:29;12.57;;;10.80;;
40591;SDS011;26301;42.832;23.918;2023-07-16T04:25:55;13.50;;;11.18;;
40591;SDS011;26301;42.832;23.918;2023-07-16T04:28:21;15.02;;;10.45;;
40591;SDS011;26301;42.832;23.918;2023-07-16T04:30:47;13.25;;;10.60;;
40591;SDS011;26301;42.832;23.918;2023-07-16T04:33:13;13.80;;;9.68;;
40591;SDS011;26301;42.832;23.918;2023-07-16T04:35:39;13.93;;;10.73;;
40591;SDS011;26301;42.832;23.918;2023-07-16T04:38:05;16.52;;;10.45;;
40591;SDS011;26301;42.832;23.918;2023-07-16T04:40:33;17.23;;;10.38;;
40591;SDS011;26301;42.832;23.918;2023-07-16T04:42:59;13.30;;;10.60;;
40591;SDS011;26301;42.832;23.918;2023-07-16T04:45:25;14.23;;;9.98;;
40591;SDS011;26301;42.832;23.918;2023-07-16T04:47:51;14.43;;;11.05;;
40591;SDS011;26301;42.832;23.918;2023-07-16T04:50:17;13.50;;;10.25;;
40591;SDS011;26301;42.832;23.918;2023-07-16T04:52:43;14.13;;;10.20;;
40591;SDS011;26301;42.832;23.918;2023-07-16T04:55:09;15.40;;;10.18;;
40591;SDS011;26301;42.832;23.918;2023-07-16T04:57:36;13.82;;;9.15;;
40591;SDS011;26301;42.832;23.918;2023-07-16T05:00:02;13.50;;;10.13;;
40591;SDS011;26301;42.832;23.918;2023-07-16T05:02:31;10.93;;;9.32;;
40591;SDS011;26301;42.832;23.918;2023-07-16T05:04:58;12.55;;;9.68;;
40591;SDS011;26301;42.832;23.918;2023-07-16T05:07:24;10.65;;;9.52;;
40591;SDS011;26301;42.832;23.918;2023-07-16T05:09:51;11.45;;;9.35;;
40591;SDS011;26301;42.832;23.918;2023-07-16T05:12:17;9.73;;;8.18;;
40591;SDS011;26301;42.832;23.918;2023-07-16T05:14:46;12.88;;;8.45;;
40591;SDS011;26301;42.832;23.918;2023-07-16T05:17:13;12.20;;;8.35;;
40591;SDS011;26301;42.832;23.918;2023-07-16T05:19:40;9.43;;;8.43;;
40591;SDS011;26301;42.832;23.918;2023-07-16T05:22:06;11.05;;;8.50;;
40591;SDS011;26301;42.832;23.918;2023-07-16T05:24:32;11.93;;;7.45;;
40591;SDS011;26301;42.832;23.918;2023-07-16T05:26:59;9.20;;;7.10;;
40591;SDS011;26301;42.832;23.918;2023-07-16T05:29:26;11.32;;;7.32;;
40591;SDS011;26301;42.832;23.918;2023-07-16T05:31:53;9.23;;;7.07;;
40591;SDS011;26301;42.832;23.918;2023-07-16T05:34:20;12.13;;;7.50;;
40591;SDS011;26301;42.832;23.918;2023-07-16T05:36:46;7.55;;;6.75;;
40591;SDS011;26301;42.832;23.918;2023-07-16T05:39:12;12.02;;;6.82;;
40591;SDS011;26301;42.832;23.918;2023-07-16T05:41:39;12.43;;;6.50;;
40591;SDS011;26301;42.832;23.918;2023-07-16T05:44:06;12.43;;;7.45;;
40591;SDS011;26301;42.832;23.918;2023-07-16T05:46:33;13.65;;;7.03;;
40591;SDS011;26301;42.832;23.918;2023-07-16T05:48:59;11.38;;;7.30;;
40591;SDS011;26301;42.832;23.918;2023-07-16T05:51:26;14.68;;;7.10;;
40591;SDS011;26301;42.832;23.918;2023-07-16T05:53:52;10.15;;;6.45;;
40591;SDS011;26301;42.832;23.918;2023-07-16T05:56:18;17.20;;;6.82;;
40591;SDS011;26301;42.832;23.918;2023-07-16T05:58:44;14.65;;;6.10;;
40591;SDS011;26301;42.832;23.918;2023-07-16T06:01:10;7.70;;;6.45;;
40591;SDS011;26301;42.832;23.918;2023-07-16T06:03:37;8.80;;;6.05;;
40591;SDS011;26301;42.832;23.918;2023-07-16T06:06:03;9.85;;;6.53;;
40591;SDS011;26301;42.832;23.918;2023-07-16T06:08:30;7.65;;;6.22;;
40591;SDS011;26301;42.832;23.918;2023-07-16T06:10:56;10.90;;;6.32;;
40591;SDS011;26301;42.832;23.918;2023-07-16T06:13:22;8.38;;;6.43;;
40591;SDS011;26301;42.832;23.918;2023-07-16T06:15:49;13.20;;;6.07;;
40591;SDS011;26301;42.832;23.918;2023-07-16T06:18:15;10.65;;;6.28;;
40591;SDS011;26301;42.832;23.918;2023-07-16T06:20:44;10.57;;;6.47;;
40591;SDS011;26301;42.832;23.918;2023-07-16T06:23:11;9.75;;;6.65;;
40591;SDS011;26301;42.832;23.918;2023-07-16T06:25:38;14.43;;;6.47;;
40591;SDS011;26301;42.832;23.918;2023-07-16T06:28:09;10.68;;;6.60;;
40591;SDS011;26301;42.832;23.918;2023-07-16T06:30:35;12.73;;;6.30;;
40591;SDS011;26301;42.832;23.918;2023-07-16T06:33:02;11.27;;;7.07;;
40591;SDS011;26301;42.832;23.918;2023-07-16T06:35:37;13.90;;;6.60;;
40591;SDS011;26301;42.832;23.918;2023-07-16T06:38:03;10.95;;;7.15;;
40591;SDS011;26301;42.832;23.918;2023-07-16T06:40:29;12.63;;;7.03;;
40591;SDS011;26301;42.832;23.918;2023-07-16T06:42:56;8.07;;;5.95;;
40591;SDS011;26301;42.832;23.918;2023-07-16T06:45:23;8.70;;;5.78;;
40591;SDS011;26301;42.832;23.918;2023-07-16T06:47:49;8.02;;;6.25;;
40591;SDS011;26301;42.832;23.918;2023-07-16T06:50:15;9.55;;;6.35;;
40591;SDS011;26301;42.832;23.918;2023-07-16T06:52:41;11.02;;;6.18;;
40591;SDS011;26301;42.832;23.918;2023-07-16T06:55:08;13.80;;;6.70;;
40591;SDS011;26301;42.832;23.918;2023-07-16T06:57:34;7.63;;;6.10;;
40591;SDS011;26301;42.832;23.918;2023-07-16T07:00:00;9.65;;;6.05;;
40591;SDS011;26301;42.832;23.918;2023-07-16T07:02:26;10.07;;;6.03;;
40591;SDS011;26301;42.832;23.918;2023-07-16T07:04:53;9.95;;;6.22;;
40591;SDS011;26301;42.832;23.918;2023-07-16T07:07:20;11.90;;;6.72;;
40591;SDS011;26301;42.832;23.918;2023-07-16T07:09:47;8.80;;;6.30;;
40591;SDS011;26301;42.832;23.918;2023-07-16T07:12:13;9.88;;;6.50;;
40591;SDS011;26301;42.832;23.918;2023-07-16T07:14:39;12.60;;;6.15;;
40591;SDS011;26301;42.832;23.918;2023-07-16T07:17:06;18.20;;;6.43;;
40591;SDS011;26301;42.832;23.918;2023-07-16T07:19:32;12.63;;;6.50;;
40591;SDS011;26301;42.832;23.918;2023-07-16T07:21:58;13.15;;;7.20;;
40591;SDS011;26301;42.832;23.918;2023-07-16T07:24:24;12.30;;;6.78;;
40591;SDS011;26301;42.832;23.918;2023-07-16T07:26:51;13.82;;;7.05;;
40591;SDS011;26301;42.832;23.918;2023-07-16T07:29:17;13.02;;;7.50;;
40591;SDS011;26301;42.832;23.918;2023-07-16T07:31:43;15.23;;;6.72;;
40591;SDS011;26301;42.832;23.918;2023-07-16T07:34:09;11.95;;;6.88;;
40591;SDS011;26301;42.832;23.918;2023-07-16T07:36:36;9.93;;;6.80;;
40591;SDS011;26301;42.832;23.918;2023-07-16T07:39:02;12.75;;;7.78;;
40591;SDS011;26301;42.832;23.918;2023-07-16T07:41:28;8.73;;;6.63;;
40591;SDS011;26301;42.832;23.918;2023-07-16T07:43:54;9.88;;;7.30;;
40591;SDS011;26301;42.832;23.918;2023-07-16T07:46:21;12.75;;;7.30;;
40591;SDS011;26301;42.832;23.918;2023-07-16T07:48:48;9.77;;;6.57;;
40591;SDS011;26301;42.832;23.918;2023-07-16T07:51:14;10.93;;;7.10;;
40591;SDS011;26301;42.832;23.918;2023-07-16T07:53:40;12.98;;;7.45;;
40591;SDS011;26301;42.832;23.918;2023-07-16T07:56:06;11.52;;;6.93;;
40591;SDS011;26301;42.832;23.918;2023-07-16T07:58:33;15.88;;;7.18;;
40591;SDS011;26301;42.832;23.918;2023-07-16T08:01:07;9.57;;;7.32;;
40591;SDS011;26301;42.832;23.918;2023-07-16T08:03:34;14.38;;;7.65;;
40591;SDS011;26301;42.832;23.918;2023-07-16T08:06:01;12.10;;;7.47;;
40591;SDS011;26301;42.832;23.918;2023-07-16T08:08:27;14.27;;;7.57;;
40591;SDS011;26301;42.832;23.918;2023-07-16T08:10:54;7.78;;;6.88;;
40591;SDS011;26301;42.832;23.918;2023-07-16T08:13:21;14.45;;;7.70;;
40591;SDS011;26301;42.832;23.918;2023-07-16T08:15:48;9.07;;;6.85;;
40591;SDS011;26301;42.832;23.918;2023-07-16T08:18:14;11.52;;;7.03;;
40591;SDS011;26301;42.832;23.918;2023-07-16T08:20:41;10.82;;;6.72;;
40591;SDS011;26301;42.832;23.918;2023-07-16T08:23:09;11.82;;;7.22;;
40591;SDS011;26301;42.832;23.918;2023-07-16T08:25:35;10.23;;;6.88;;
40591;SDS011;26301;42.832;23.918;2023-07-16T08:28:02;11.57;;;7.15;;
40591;SDS011;26301;42.832;23.918;2023-07-16T08:30:28;14.15;;;7.65;;
40591;SDS011;26301;42.832;23.918;2023-07-16T08:32:54;8.45;;;6.88;;
40591;SDS011;26301;42.832;23.918;2023-07-16T08:35:20;12.07;;;7.32;;
40591;SDS011;26301;42.832;23.918;2023-07-16T08:37:46;13.95;;;7.50;;
40591;SDS011;26301;42.832;23.918;2023-07-16T08:40:13;11.70;;;7.45;;
40591;SDS011;26301;42.832;23.918;2023-07-16T08:42:40;13.25;;;7.40;;
40591;SDS011;26301;42.832;23.918;2023-07-16T08:45:10;15.52;;;7.65;;
40591;SDS011;26301;42.832;23.918;2023-07-16T08:47:37;11.68;;;7.38;;
40591;SDS011;26301;42.832;23.918;2023-07-16T08:50:04;9.60;;;7.25;;
40591;SDS011;26301;42.832;23.918;2023-07-16T08:52:31;9.82;;;7.50;;
40591;SDS011;26301;42.832;23.918;2023-07-16T08:54:57;13.30;;;7.28;;
40591;SDS011;26301;42.832;23.918;2023-07-16T08:57:23;7.80;;;6.95;;
40591;SDS011;26301;42.832;23.918;2023-07-16T08:59:51;14.65;;;7.28;;
40591;SDS011;26301;42.832;23.918;2023-07-16T09:02:17;11.02;;;7.28;;
40591;SDS011;26301;42.832;23.918;2023-07-16T09:04:47;13.02;;;7.55;;
40591;SDS011;26301;42.832;23.918;2023-07-16T09:07:14;9.75;;;7.18;;
40591;SDS011;26301;42.832;23.918;2023-07-16T09:09:41;14.43;;;7.63;;
40591;SDS011;26301;42.832;23.918;2023-07-16T09:12:17;9.50;;;7.43;;
40591;SDS011;26301;42.832;23.918;2023-07-16T09:14:43;16.15;;;7.85;;
40591;SDS011;26301;42.832;23.918;2023-07-16T09:17:11;8.95;;;7.22;;
40591;SDS011;26301;42.832;23.918;2023-07-16T09:19:38;17.92;;;7.70;;
40591;SDS011;26301;42.832;23.918;2023-07-16T09:22:04;13.07;;;8.02;;
40591;SDS011;26301;42.832;23.918;2023-07-16T09:24:30;10.15;;;7.40;;
40591;SDS011;26301;42.832;23.918;2023-07-16T09:26:55;12.45;;;8.10;;
40591;SDS011;26301;42.832;23.918;2023-07-16T09:29:22;8.80;;;7.15;;
40591;SDS011;26301;42.832;23.918;2023-07-16T09:31:57;10.98;;;7.38;;
40591;SDS011;26301;42.832;23.918;2023-07-16T09:34:28;10.73;;;7.20;;
40591;SDS011;26301;42.832;23.918;2023-07-16T09:36:55;10.10;;;7.30;;
40591;SDS011;26301;42.832;23.918;2023-07-16T09:39:22;10.32;;;6.90;;
40591;SDS011;26301;42.832;23.918;2023-07-16T09:41:49;8.93;;;7.28;;
40591;SDS011;26301;42.832;23.918;2023-07-16T09:44:15;10.85;;;7.00;;
40591;SDS011;26301;42.832;23.918;2023-07-16T09:46:43;11.32;;;7.20;;
40591;SDS011;26301;42.832;23.918;2023-07-16T09:49:11;10.70;;;7.10;;
40591;SDS011;26301;42.832;23.918;2023-07-16T09:51:39;12.23;;;7.60;;
40591;SDS011;26301;42.832;23.918;2023-07-16T09:54:05;10.60;;;7.28;;
40591;SDS011;26301;42.832;23.918;2023-07-16T09:56:38;12.90;;;7.63;;
40591;SDS011;26301;42.832;23.918;2023-07-16T09:59:16;11.98;;;7.65;;
40591;SDS011;26301;42.832;23.918;2023-07-16T10:01:45;11.98;;;8.18;;
40591;SDS011;26301;42.832;23.918;2023-07-16T10:04:18;11.15;;;7.97;;
40591;SDS011;26301;42.832;23.918;2023-07-16T10:07:00;10.77;;;8.27;;
40591;SDS011;26301;42.832;23.918;2023-07-16T10:09:40;14.70;;;8.25;;
40591;SDS011;26301;42.832;23.918;2023-07-16T10:12:16;10.23;;;7.87;;
40591;SDS011;26301;42.832;23.918;2023-07-16T10:19:47;10.32;;;8.20;;
40591;SDS011;26301;42.832;23.918;2023-07-16T10:24:59;10.38;;;7.78;;
40591;SDS011;26301;42.832;23.918;2023-07-16T10:27:29;10.85;;;8.75;;
40591;SDS011;26301;42.832;23.918;2023-07-16T10:30:03;11.52;;;8.00;;
40591;SDS011;26301;42.832;23.918;2023-07-16T10:32:30;12.10;;;8.10;;
40591;SDS011;26301;42.832;23.918;2023-07-16T10:35:00;13.30;;;8.00;;
40591;SDS011;26301;42.832;23.918;2023-07-16T10:37:26;11.57;;;8.00;;
40591;SDS011;26301;42.832;23.918;2023-07-16T10:39:53;8.73;;;7.82;;
40591;SDS011;26301;42.832;23.918;2023-07-16T10:42:22;9.05;;;7.88;;
40591;SDS011;26301;42.832;23.918;2023-07-16T10:44:49;11.52;;;8.38;;
40591;SDS011;26301;42.832;23.918;2023-07-16T10:47:22;9.27;;;7.88;;
40591;SDS011;26301;42.832;23.918;2023-07-16T10:49:50;10.38;;;8.50;;
40591;SDS011;26301;42.832;23.918;2023-07-16T10:52:20;13.30;;;7.70;;
40591;SDS011;26301;42.832;23.918;2023-07-16T10:54:47;8.50;;;7.40;;
40591;SDS011;26301;42.832;23.918;2023-07-16T10:57:23;9.20;;;7.30;;
40591;SDS011;26301;42.832;23.918;2023-07-16T10:59:53;12.07;;;7.50;;
40591;SDS011;26301;42.832;23.918;2023-07-16T11:02:21;11.13;;;7.72;;
40591;SDS011;26301;42.832;23.918;2023-07-16T11:04:49;12.40;;;8.18;;
40591;SDS011;26301;42.832;23.918;2023-07-16T11:07:18;12.13;;;7.93;;
40591;SDS011;26301;42.832;23.918;2023-07-16T11:09:46;12.40;;;8.40;;
40591;SDS011;26301;42.832;23.918;2023-07-16T11:12:15;9.93;;;8.23;;
40591;SDS011;26301;42.832;23.918;2023-07-16T11:14:43;9.25;;;8.27;;
40591;SDS011;26301;42.832;23.918;2023-07-16T11:17:10;9.63;;;8.18;;
40591;SDS011;26301;42.832;23.918;2023-07-16T11:19:38;9.82;;;7.90;;
40591;SDS011;26301;42.832;23.918;2023-07-16T11:22:05;16.13;;;9.13;;
40591;SDS011;26301;42.832;23.918;2023-07-16T11:24:36;11.32;;;8.82;;
40591;SDS011;26301;42.832;23.918;2023-07-16T11:27:30;12.93;;;8.98;;
40591;SDS011;26301;42.832;23.918;2023-07-16T11:29:58;9.32;;;8.20;;
40591;SDS011;26301;42.832;23.918;2023-07-16T11:32:26;9.60;;;8.48;;
40591;SDS011;26301;42.832;23.918;2023-07-16T11:34:55;10.00;;;8.38;;
40591;SDS011;26301;42.832;23.918;2023-07-16T11:37:22;10.43;;;8.05;;
40591;SDS011;26301;42.832;23.918;2023-07-16T11:39:50;14.75;;;8.63;;
40591;SDS011;26301;42.832;23.918;2023-07-16T11:42:36;11.00;;;8.02;;
40591;SDS011;26301;42.832;23.918;2023-07-16T11:45:14;19.23;;;8.52;;
40591;SDS011;26301;42.832;23.918;2023-07-16T11:47:48;13.98;;;8.00;;
40591;SDS011;26301;42.832;23.918;2023-07-16T11:50:14;9.98;;;7.78;;
40591;SDS011;26301;42.832;23.918;2023-07-16T11:52:41;14.32;;;8.75;;
40591;SDS011;26301;42.832;23.918;2023-07-16T11:55:07;13.88;;;8.32;;
40591;SDS011;26301;42.832;23.918;2023-07-16T11:57:34;13.02;;;8.82;;
40591;SDS011;26301;42.832;23.918;2023-07-16T12:00:01;17.15;;;8.80;;
40591;SDS011;26301;42.832;23.918;2023-07-16T12:02:28;10.20;;;8.30;;
40591;SDS011;26301;42.832;23.918;2023-07-16T12:04:55;9.57;;;8.55;;
40591;SDS011;26301;42.832;23.918;2023-07-16T12:07:34;12.10;;;8.05;;
40591;SDS011;26301;42.832;23.918;2023-07-16T12:10:05;9.75;;;7.85;;
40591;SDS011;26301;42.832;23.918;2023-07-16T12:12:32;15.33;;;8.87;;
40591;SDS011;26301;42.832;23.918;2023-07-16T12:15:02;14.70;;;9.18;;
40591;SDS011;26301;42.832;23.918;2023-07-16T12:17:29;10.23;;;8.88;;
40591;SDS011;26301;42.832;23.918;2023-07-16T12:19:55;13.52;;;9.05;;
40591;SDS011;26301;42.832;23.918;2023-07-16T12:22:21;15.57;;;9.80;;
40591;SDS011;26301;42.832;23.918;2023-07-16T12:24:49;10.55;;;8.95;;
40591;SDS011;26301;42.832;23.918;2023-07-16T12:27:15;13.15;;;8.85;;
40591;SDS011;26301;42.832;23.918;2023-07-16T12:29:41;10.02;;;9.05;;
40591;SDS011;26301;42.832;23.918;2023-07-16T12:32:09;11.15;;;9.20;;
40591;SDS011;26301;42.832;23.918;2023-07-16T12:34:37;12.02;;;9.38;;
40591;SDS011;26301;42.832;23.918;2023-07-16T12:37:05;10.82;;;9.77;;
40591;SDS011;26301;42.832;23.918;2023-07-16T12:39:32;14.38;;;10.20;;
40591;SDS011;26301;42.832;23.918;2023-07-16T12:41:59;11.93;;;9.02;;
40591;SDS011;26301;42.832;23.918;2023-07-16T12:44:25;11.32;;;9.65;;
40591;SDS011;26301;42.832;23.918;2023-07-16T12:46:52;19.48;;;14.68;;
40591;SDS011;26301;42.832;23.918;2023-07-16T12:49:19;19.63;;;13.73;;
40591;SDS011;26301;42.832;23.918;2023-07-16T12:51:45;15.30;;;11.65;;
40591;SDS011;26301;42.832;23.918;2023-07-16T12:54:11;15.55;;;11.68;;
40591;SDS011;26301;42.832;23.918;2023-07-16T12:56:37;13.88;;;11.45;;
40591;SDS011;26301;42.832;23.918;2023-07-16T12:59:04;13.20;;;10.07;;
40591;SDS011;26301;42.832;23.918;2023-07-16T13:01:32;18.48;;;9.55;;
40591;SDS011;26301;42.832;23.918;2023-07-16T13:03:58;14.38;;;9.95;;
40591;SDS011;26301;42.832;23.918;2023-07-16T13:06:24;11.95;;;10.45;;
40591;SDS011;26301;42.832;23.918;2023-07-16T13:08:50;12.45;;;10.65;;
40591;SDS011;26301;42.832;23.918;2023-07-16T13:11:16;12.63;;;8.95;;
40591;SDS011;26301;42.832;23.918;2023-07-16T13:13:42;9.65;;;8.70;;
40591;SDS011;26301;42.832;23.918;2023-07-16T13:16:09;12.73;;;8.98;;
40591;SDS011;26301;42.832;23.918;2023-07-16T13:18:35;12.57;;;9.38;;
40591;SDS011;26301;42.832;23.918;2023-07-16T13:21:01;12.55;;;8.70;;
40591;SDS011;26301;42.832;23.918;2023-07-16T13:25:57;11.13;;;8.25;;
40591;SDS011;26301;42.832;23.918;2023-07-16T13:28:23;16.23;;;8.13;;
40591;SDS011;26301;42.832;23.918;2023-07-16T13:30:49;11.45;;;7.90;;
40591;SDS011;26301;42.832;23.918;2023-07-16T13:33:16;11.65;;;7.72;;
40591;SDS011;26301;42.832;23.918;2023-07-16T13:35:42;16.33;;;7.82;;
40591;SDS011;26301;42.832;23.918;2023-07-16T13:38:08;11.00;;;8.13;;
40591;SDS011;26301;42.832;23.918;2023-07-16T13:40:35;11.20;;;8.48;;
40591;SDS011;26301;42.832;23.918;2023-07-16T13:43:04;9.43;;;7.68;;
40591;SDS011;26301;42.832;23.918;2023-07-16T13:45:30;15.50;;;8.13;;
40591;SDS011;26301;42.832;23.918;2023-07-16T13:47:58;12.40;;;8.00;;
40591;SDS011;26301;42.832;23.918;2023-07-16T13:50:24;11.32;;;7.32;;
40591;SDS011;26301;42.832;23.918;2023-07-16T13:52:50;10.40;;;7.50;;
40591;SDS011;26301;42.832;23.918;2023-07-16T13:55:17;12.65;;;8.25;;
40591;SDS011;26301;42.832;23.918;2023-07-16T13:57:44;9.90;;;7.50;;
40591;SDS011;26301;42.832;23.918;2023-07-16T14:00:12;12.48;;;7.82;;
40591;SDS011;26301;42.832;23.918;2023-07-16T14:02:41;9.68;;;7.80;;
40591;SDS011;26301;42.832;23.918;2023-07-16T14:05:08;9.70;;;7.20;;
40591;SDS011;26301;42.832;23.918;2023-07-16T14:07:35;11.43;;;8.15;;
40591;SDS011;26301;42.832;23.918;2023-07-16T14:10:01;13.05;;;8.13;;
40591;SDS011;26301;42.832;23.918;2023-07-16T14:12:28;9.55;;;8.15;;
40591;SDS011;26301;42.832;23.918;2023-07-16T14:14:54;10.65;;;8.02;;
40591;SDS011;26301;42.832;23.918;2023-07-16T14:17:20;11.52;;;7.60;;
40591;SDS011;26301;42.832;23.918;2023-07-16T14:19:48;10.60;;;7.47;;
40591;SDS011;26301;42.832;23.918;2023-07-16T14:22:15;9.73;;;7.18;;
40591;SDS011;26301;42.832;23.918;2023-07-16T14:24:42;16.95;;;6.90;;
40591;SDS011;26301;42.832;23.918;2023-07-16T14:27:08;12.80;;;8.27;;
40591;SDS011;26301;42.832;23.918;2023-07-16T14:29:34;13.30;;;8.95;;
40591;SDS011;26301;42.832;23.918;2023-07-16T14:32:00;14.65;;;9.00;;
40591;SDS011;26301;42.832;23.918;2023-07-16T14:34:27;12.18;;;9.02;;
40591;SDS011;26301;42.832;23.918;2023-07-16T14:36:54;13.80;;;9.60;;